sensor_id;sensor_type;location;lat;lon;timestamp;P1;durP1;ratioP1;P2;durP2;ratioP2
12966;SDS011;6548;49.996;8.238;2022-12-18T04:30:13;38.58;;;11.60;;
12966;SDS011;6548;49.996;8.238;2022-12-18T04:32:38;50.53;;;15.13;;
12966;SDS011;6548;49.996;8.238;2022-12-18T04:35:04;29.55;;;12.25;;
12966;SDS011;6548;49.996;8.238;2022-12-18T04:37:31;28.88;;;11.07;;
12966;SDS011;6548;49.996;8.238;2022-12-18T04:39:57;24.55;;;11.27;;
12966;SDS011;6548;49.996;8.238;2022-12-18T04:42:22;36.88;;;12.68;;
12966;SDS011;6548;49.996;8.238;2022-12-18T04:44:48;22.90;;;10.88;;
12966;SDS011;6548;49.996;8.238;2022-12-18T04:47:14;34.72;;;12.77;;
12966;SDS011;6548;49.996;8.238;2022-12-18T04:49:39;34.15;;;12.90;;
12966;SDS011;6548;49.996;8.238;2022-12-18T04:52:05;31.80;;;11.98;;
12966;SDS011;6548;49.996;8.238;2022-12-18T04:54:30;28.20;;;12.88;;
12966;SDS011;6548;49.996;8.238;2022-12-18T04:56:56;31.55;;;12.52;;
12966;SDS011;6548;49.996;8.238;2022-12-18T04:59:22;35.58;;;12.43;;
12966;SDS011;6548;49.996;8.238;2022-12-18T05:01:47;32.08;;;12.60;;
12966;SDS011;6548;49.996;8.238;2022-12-18T05:04:13;28.48;;;11.52;;
12966;SDS011;6548;49.996;8.238;2022-12-18T05:06:38;34.25;;;11.88;;
12966;SDS011;6548;49.996;8.238;2022-12-18T05:09:04;34.95;;;14.13;;
12966;SDS011;6548;49.996;8.238;2022-12-18T05:11:29;33.28;;;13.93;;
12966;SDS011;6548;49.996;8.238;2022-12-18T05:13:55;33.03;;;12.80;;
12966;SDS011;6548;49.996;8.238;2022-12-18T05:16:20;36.75;;;14.43;;
12966;SDS011;6548;49.996;8.238;2022-12-18T05:18:46;32.47;;;10.68;;
12966;SDS011;6548;49.996;8.238;2022-12-18T05:21:11;37.13;;;13.35;;
12966;SDS011;6548;49.996;8.238;2022-12-18T05:23:37;28.10;;;11.75;;
12966;SDS011;6548;49.996;8.238;2022-12-18T05:26:03;32.42;;;12.40;;
12966;SDS011;6548;49.996;8.238;2022-12-18T05:28:31;28.88;;;12.27;;
12966;SDS011;6548;49.996;8.238;2022-12-18T05:30:58;26.20;;;10.43;;
12966;SDS011;6548;49.996;8.238;2022-12-18T05:33:28;28.70;;;12.52;;
12966;SDS011;6548;49.996;8.238;2022-12-18T05:35:56;27.42;;;10.40;;
12966;SDS011;6548;49.996;8.238;2022-12-18T05:38:27;28.83;;;11.00;;
12966;SDS011;6548;49.996;8.238;2022-12-18T05:40:54;27.02;;;11.57;;
12966;SDS011;6548;49.996;8.238;2022-12-18T05:43:21;22.90;;;10.15;;
12966;SDS011;6548;49.996;8.238;2022-12-18T05:45:48;28.73;;;11.10;;
12966;SDS011;6548;49.996;8.238;2022-12-18T05:48:14;29.05;;;11.05;;
12966;SDS011;6548;49.996;8.238;2022-12-18T05:50:41;26.48;;;11.95;;
12966;SDS011;6548;49.996;8.238;2022-12-18T05:53:10;21.92;;;9.70;;
12966;SDS011;6548;49.996;8.238;2022-12-18T05:55:36;24.88;;;10.75;;
12966;SDS011;6548;49.996;8.238;2022-12-18T05:58:04;26.13;;;10.75;;
12966;SDS011;6548;49.996;8.238;2022-12-18T06:00:31;23.75;;;10.50;;
12966;SDS011;6548;49.996;8.238;2022-12-18T06:02:59;29.95;;;12.77;;
12966;SDS011;6548;49.996;8.238;2022-12-18T06:05:25;24.15;;;11.65;;
12966;SDS011;6548;49.996;8.238;2022-12-18T06:07:51;31.52;;;12.80;;
12966;SDS011;6548;49.996;8.238;2022-12-18T06:10:16;29.30;;;11.45;;
12966;SDS011;6548;49.996;8.238;2022-12-18T06:12:42;29.92;;;13.77;;
12966;SDS011;6548;49.996;8.238;2022-12-18T06:15:08;26.98;;;10.38;;
12966;SDS011;6548;49.996;8.238;2022-12-18T06:17:34;26.25;;;11.70;;
12966;SDS011;6548;49.996;8.238;2022-12-18T06:20:00;28.70;;;13.57;;
12966;SDS011;6548;49.996;8.238;2022-12-18T06:22:26;27.15;;;11.52;;
12966;SDS011;6548;49.996;8.238;2022-12-18T06:24:52;23.60;;;9.82;;
12966;SDS011;6548;49.996;8.238;2022-12-18T06:27:18;25.27;;;11.18;;
12966;SDS011;6548;49.996;8.238;2022-12-18T06:29:43;24.42;;;11.10;;
12966;SDS011;6548;49.996;8.238;2022-12-18T06:32:09;27.08;;;11.05;;
12966;SDS011;6548;49.996;8.238;2022-12-18T06:34:36;24.00;;;9.95;;
12966;SDS011;6548;49.996;8.238;2022-12-18T06:37:02;30.00;;;12.15;;
12966;SDS011;6548;49.996;8.238;2022-12-18T06:39:28;29.05;;;10.52;;
12966;SDS011;6548;49.996;8.238;2022-12-18T06:41:54;31.73;;;12.63;;
12966;SDS011;6548;49.996;8.238;2022-12-18T06:44:20;21.60;;;9.93;;
12966;SDS011;6548;49.996;8.238;2022-12-18T06:46:45;30.60;;;11.57;;
12966;SDS011;6548;49.996;8.238;2022-12-18T06:49:11;32.63;;;13.30;;
12966;SDS011;6548;49.996;8.238;2022-12-18T06:51:37;33.80;;;14.70;;
12966;SDS011;6548;49.996;8.238;2022-12-18T06:54:03;29.90;;;15.45;;
12966;SDS011;6548;49.996;8.238;2022-12-18T06:56:28;45.47;;;18.23;;
12966;SDS011;6548;49.996;8.238;2022-12-18T06:58:54;41.55;;;17.90;;
12966;SDS011;6548;49.996;8.238;2022-12-18T07:01:20;37.83;;;15.98;;
12966;SDS011;6548;49.996;8.238;2022-12-18T07:03:46;40.30;;;16.50;;
12966;SDS011;6548;49.996;8.238;2022-12-18T07:06:17;34.90;;;14.63;;
12966;SDS011;6548;49.996;8.238;2022-12-18T07:08:44;49.08;;;19.80;;
12966;SDS011;6548;49.996;8.238;2022-12-18T07:11:11;38.53;;;16.65;;
12966;SDS011;6548;49.996;8.238;2022-12-18T07:13:37;32.85;;;13.13;;
12966;SDS011;6548;49.996;8.238;2022-12-18T07:16:13;36.10;;;15.55;;
12966;SDS011;6548;49.996;8.238;2022-12-18T07:18:43;29.08;;;12.25;;
12966;SDS011;6548;49.996;8.238;2022-12-18T07:21:11;31.08;;;13.15;;
12966;SDS011;6548;49.996;8.238;2022-12-18T07:23:38;28.67;;;13.48;;
12966;SDS011;6548;49.996;8.238;2022-12-18T07:26:05;29.75;;;13.13;;
12966;SDS011;6548;49.996;8.238;2022-12-18T07:28:32;31.42;;;13.13;;
12966;SDS011;6548;49.996;8.238;2022-12-18T07:31:11;32.20;;;13.15;;
12966;SDS011;6548;49.996;8.238;2022-12-18T07:33:37;27.98;;;12.70;;
12966;SDS011;6548;49.996;8.238;2022-12-18T07:36:04;26.65;;;11.45;;
12966;SDS011;6548;49.996;8.238;2022-12-18T07:38:31;30.17;;;11.27;;
12966;SDS011;6548;49.996;8.238;2022-12-18T07:41:04;27.98;;;11.80;;
12966;SDS011;6548;49.996;8.238;2022-12-18T07:43:32;27.00;;;10.90;;
12966;SDS011;6548;49.996;8.238;2022-12-18T07:45:58;27.63;;;9.93;;
12966;SDS011;6548;49.996;8.238;2022-12-18T07:48:23;23.70;;;10.18;;
12966;SDS011;6548;49.996;8.238;2022-12-18T07:50:49;28.67;;;12.32;;
12966;SDS011;6548;49.996;8.238;2022-12-18T07:53:15;27.85;;;12.07;;
12966;SDS011;6548;49.996;8.238;2022-12-18T07:55:40;28.23;;;12.23;;
12966;SDS011;6548;49.996;8.238;2022-12-18T07:58:07;27.73;;;11.52;;
12966;SDS011;6548;49.996;8.238;2022-12-18T08:00:33;31.63;;;11.00;;
12966;SDS011;6548;49.996;8.238;2022-12-18T08:02:59;33.20;;;11.63;;
12966;SDS011;6548;49.996;8.238;2022-12-18T08:05:24;29.58;;;11.15;;
12966;SDS011;6548;49.996;8.238;2022-12-18T08:07:50;26.73;;;13.48;;
12966;SDS011;6548;49.996;8.238;2022-12-18T08:10:16;29.02;;;12.82;;
12966;SDS011;6548;49.996;8.238;2022-12-18T08:12:41;29.70;;;13.45;;
12966;SDS011;6548;49.996;8.238;2022-12-18T08:15:07;30.33;;;13.15;;
12966;SDS011;6548;49.996;8.238;2022-12-18T08:17:33;37.33;;;15.48;;
12966;SDS011;6548;49.996;8.238;2022-12-18T08:19:58;30.00;;;12.52;;
12966;SDS011;6548;49.996;8.238;2022-12-18T08:22:24;37.38;;;15.70;;
12966;SDS011;6548;49.996;8.238;2022-12-18T08:24:50;22.67;;;11.90;;
12966;SDS011;6548;49.996;8.238;2022-12-18T08:27:15;27.08;;;10.27;;
12966;SDS011;6548;49.996;8.238;2022-12-18T08:29:41;36.28;;;14.45;;
12966;SDS011;6548;49.996;8.238;2022-12-18T08:32:06;28.38;;;15.63;;
12966;SDS011;6548;49.996;8.238;2022-12-18T08:34:32;29.63;;;13.18;;
12966;SDS011;6548;49.996;8.238;2022-12-18T08:36:58;29.02;;;13.95;;
12966;SDS011;6548;49.996;8.238;2022-12-18T08:39:23;35.35;;;14.98;;
12966;SDS011;6548;49.996;8.238;2022-12-18T08:41:49;32.33;;;13.88;;
12966;SDS011;6548;49.996;8.238;2022-12-18T08:44:33;33.40;;;14.77;;
12966;SDS011;6548;49.996;8.238;2022-12-18T08:47:05;23.98;;;11.00;;
12966;SDS011;6548;49.996;8.238;2022-12-18T08:49:31;32.38;;;13.27;;
12966;SDS011;6548;49.996;8.238;2022-12-18T08:51:57;32.60;;;13.68;;
12966;SDS011;6548;49.996;8.238;2022-12-18T08:54:23;24.70;;;11.57;;
12966;SDS011;6548;49.996;8.238;2022-12-18T08:56:49;27.80;;;13.15;;
12966;SDS011;6548;49.996;8.238;2022-12-18T08:59:15;32.78;;;14.57;;
12966;SDS011;6548;49.996;8.238;2022-12-18T09:01:41;30.63;;;14.25;;
12966;SDS011;6548;49.996;8.238;2022-12-18T09:04:07;27.40;;;12.65;;
12966;SDS011;6548;49.996;8.238;2022-12-18T09:06:36;31.33;;;12.82;;
12966;SDS011;6548;49.996;8.238;2022-12-18T09:09:03;30.75;;;13.02;;
12966;SDS011;6548;49.996;8.238;2022-12-18T09:11:30;33.92;;;15.73;;
12966;SDS011;6548;49.996;8.238;2022-12-18T09:13:56;27.92;;;13.43;;
12966;SDS011;6548;49.996;8.238;2022-12-18T09:16:23;29.10;;;13.65;;
12966;SDS011;6548;49.996;8.238;2022-12-18T09:18:50;37.90;;;15.02;;
12966;SDS011;6548;49.996;8.238;2022-12-18T09:21:16;31.67;;;14.50;;
12966;SDS011;6548;49.996;8.238;2022-12-18T09:23:48;27.67;;;13.85;;
12966;SDS011;6548;49.996;8.238;2022-12-18T09:26:14;37.35;;;17.00;;
12966;SDS011;6548;49.996;8.238;2022-12-18T09:28:40;38.83;;;16.80;;
12966;SDS011;6548;49.996;8.238;2022-12-18T09:31:06;25.25;;;10.73;;
12966;SDS011;6548;49.996;8.238;2022-12-18T09:33:34;30.88;;;13.77;;
12966;SDS011;6548;49.996;8.238;2022-12-18T09:36:01;35.95;;;14.65;;
12966;SDS011;6548;49.996;8.238;2022-12-18T09:38:28;32.45;;;14.65;;
12966;SDS011;6548;49.996;8.238;2022-12-18T09:40:55;35.08;;;16.08;;
12966;SDS011;6548;49.996;8.238;2022-12-18T09:43:29;25.40;;;14.10;;
12966;SDS011;6548;49.996;8.238;2022-12-18T09:46:06;35.25;;;15.80;;
12966;SDS011;6548;49.996;8.238;2022-12-18T09:48:35;41.72;;;17.08;;
12966;SDS011;6548;49.996;8.238;2022-12-18T09:53:46;28.02;;;13.80;;
12966;SDS011;6548;49.996;8.238;2022-12-18T09:56:18;34.08;;;16.75;;
12966;SDS011;6548;49.996;8.238;2022-12-18T10:01:24;30.33;;;14.77;;
12966;SDS011;6548;49.996;8.238;2022-12-18T10:03:51;28.60;;;14.45;;
12966;SDS011;6548;49.996;8.238;2022-12-18T10:06:20;36.28;;;16.35;;
12966;SDS011;6548;49.996;8.238;2022-12-18T10:08:56;36.42;;;16.33;;
12966;SDS011;6548;49.996;8.238;2022-12-18T10:11:34;37.67;;;17.13;;
12966;SDS011;6548;49.996;8.238;2022-12-18T10:14:23;40.33;;;18.30;;
12966;SDS011;6548;49.996;8.238;2022-12-18T10:17:07;38.30;;;15.93;;
12966;SDS011;6548;49.996;8.238;2022-12-18T10:19:54;40.35;;;18.08;;
12966;SDS011;6548;49.996;8.238;2022-12-18T10:22:35;36.72;;;14.57;;
12966;SDS011;6548;49.996;8.238;2022-12-18T10:28:23;25.17;;;12.07;;
12966;SDS011;6548;49.996;8.238;2022-12-18T10:30:50;47.30;;;19.48;;
12966;SDS011;6548;49.996;8.238;2022-12-18T10:33:16;40.17;;;16.42;;
12966;SDS011;6548;49.996;8.238;2022-12-18T10:35:44;31.10;;;15.15;;
12966;SDS011;6548;49.996;8.238;2022-12-18T10:40:47;41.47;;;17.90;;
12966;SDS011;6548;49.996;8.238;2022-12-18T10:43:14;48.50;;;20.42;;
12966;SDS011;6548;49.996;8.238;2022-12-18T10:45:40;31.08;;;14.57;;
12966;SDS011;6548;49.996;8.238;2022-12-18T10:48:19;40.58;;;18.17;;
12966;SDS011;6548;49.996;8.238;2022-12-18T10:50:50;37.70;;;17.30;;
12966;SDS011;6548;49.996;8.238;2022-12-18T10:53:27;35.38;;;16.92;;
12966;SDS011;6548;49.996;8.238;2022-12-18T10:55:57;37.13;;;19.08;;
12966;SDS011;6548;49.996;8.238;2022-12-18T10:58:36;43.93;;;18.23;;
12966;SDS011;6548;49.996;8.238;2022-12-18T11:01:16;40.35;;;15.63;;
12966;SDS011;6548;49.996;8.238;2022-12-18T11:03:45;46.50;;;19.13;;
12966;SDS011;6548;49.996;8.238;2022-12-18T11:06:32;26.65;;;14.50;;
12966;SDS011;6548;49.996;8.238;2022-12-18T11:09:02;41.42;;;19.95;;
12966;SDS011;6548;49.996;8.238;2022-12-18T11:11:29;28.35;;;14.05;;
12966;SDS011;6548;49.996;8.238;2022-12-18T11:14:03;39.92;;;19.45;;
12966;SDS011;6548;49.996;8.238;2022-12-18T11:16:36;35.38;;;18.73;;
12966;SDS011;6548;49.996;8.238;2022-12-18T11:21:42;38.53;;;15.13;;
12966;SDS011;6548;49.996;8.238;2022-12-18T11:24:15;27.88;;;14.95;;
12966;SDS011;6548;49.996;8.238;2022-12-18T11:26:55;33.38;;;14.40;;
12966;SDS011;6548;49.996;8.238;2022-12-18T11:29:31;42.22;;;18.13;;
12966;SDS011;6548;49.996;8.238;2022-12-18T11:35:10;25.27;;;14.25;;
12966;SDS011;6548;49.996;8.238;2022-12-18T11:37:37;26.17;;;12.60;;
12966;SDS011;6548;49.996;8.238;2022-12-18T11:40:16;43.15;;;18.95;;
12966;SDS011;6548;49.996;8.238;2022-12-18T11:42:58;40.37;;;16.30;;
12966;SDS011;6548;49.996;8.238;2022-12-18T11:45:35;29.98;;;13.65;;
12966;SDS011;6548;49.996;8.238;2022-12-18T11:48:21;46.92;;;20.48;;
12966;SDS011;6548;49.996;8.238;2022-12-18T11:50:52;29.52;;;14.50;;
12966;SDS011;6548;49.996;8.238;2022-12-18T11:53:20;23.95;;;10.20;;
12966;SDS011;6548;49.996;8.238;2022-12-18T12:01:36;41.08;;;18.58;;
12966;SDS011;6548;49.996;8.238;2022-12-18T12:07:25;40.78;;;17.08;;
12966;SDS011;6548;49.996;8.238;2022-12-18T12:15:38;33.88;;;16.17;;
12966;SDS011;6548;49.996;8.238;2022-12-18T12:18:24;33.80;;;17.20;;
12966;SDS011;6548;49.996;8.238;2022-12-18T12:26:45;37.65;;;15.80;;
12966;SDS011;6548;49.996;8.238;2022-12-18T12:29:27;32.83;;;15.63;;
12966;SDS011;6548;49.996;8.238;2022-12-18T12:35:04;40.90;;;17.52;;
12966;SDS011;6548;49.996;8.238;2022-12-18T12:37:45;35.70;;;16.42;;
12966;SDS011;6548;49.996;8.238;2022-12-18T12:40:19;44.75;;;17.67;;
12966;SDS011;6548;49.996;8.238;2022-12-18T12:43:07;42.38;;;17.88;;
12966;SDS011;6548;49.996;8.238;2022-12-18T12:51:21;31.13;;;13.82;;
12966;SDS011;6548;49.996;8.238;2022-12-18T12:53:57;45.92;;;18.48;;
12966;SDS011;6548;49.996;8.238;2022-12-18T12:56:25;51.30;;;20.48;;
12966;SDS011;6548;49.996;8.238;2022-12-18T13:04:43;32.65;;;14.48;;
12966;SDS011;6548;49.996;8.238;2022-12-18T13:13:06;47.85;;;20.50;;
12966;SDS011;6548;49.996;8.238;2022-12-18T13:15:46;48.65;;;20.95;;
12966;SDS011;6548;49.996;8.238;2022-12-18T13:20:48;46.63;;;19.70;;
12966;SDS011;6548;49.996;8.238;2022-12-18T13:25:45;40.65;;;17.25;;
12966;SDS011;6548;49.996;8.238;2022-12-18T13:28:14;51.80;;;21.77;;
12966;SDS011;6548;49.996;8.238;2022-12-18T13:30:42;47.42;;;18.70;;
12966;SDS011;6548;49.996;8.238;2022-12-18T13:38:23;54.38;;;20.58;;
12966;SDS011;6548;49.996;8.238;2022-12-18T13:43:47;52.33;;;22.42;;
12966;SDS011;6548;49.996;8.238;2022-12-18T13:46:24;41.95;;;18.08;;
12966;SDS011;6548;49.996;8.238;2022-12-18T13:49:03;49.78;;;18.63;;
12966;SDS011;6548;49.996;8.238;2022-12-18T13:51:49;50.58;;;20.63;;
12966;SDS011;6548;49.996;8.238;2022-12-18T13:54:18;47.83;;;20.92;;
12966;SDS011;6548;49.996;8.238;2022-12-18T13:56:45;43.05;;;16.80;;
12966;SDS011;6548;49.996;8.238;2022-12-18T13:59:23;46.10;;;20.98;;
12966;SDS011;6548;49.996;8.238;2022-12-18T14:01:56;31.90;;;14.00;;
12966;SDS011;6548;49.996;8.238;2022-12-18T14:04:25;52.30;;;18.67;;
12966;SDS011;6548;49.996;8.238;2022-12-18T14:06:55;41.33;;;18.77;;
12966;SDS011;6548;49.996;8.238;2022-12-18T14:09:36;39.20;;;17.75;;
12966;SDS011;6548;49.996;8.238;2022-12-18T14:12:05;44.58;;;15.32;;
12966;SDS011;6548;49.996;8.238;2022-12-18T14:14:55;41.13;;;16.55;;
12966;SDS011;6548;49.996;8.238;2022-12-18T14:17:21;47.78;;;19.35;;
12966;SDS011;6548;49.996;8.238;2022-12-18T14:19:48;27.23;;;12.45;;
12966;SDS011;6548;49.996;8.238;2022-12-18T14:22:19;45.40;;;17.58;;
12966;SDS011;6548;49.996;8.238;2022-12-18T14:25:05;47.17;;;19.90;;
12966;SDS011;6548;49.996;8.238;2022-12-18T14:27:44;49.10;;;19.90;;
12966;SDS011;6548;49.996;8.238;2022-12-18T14:30:31;53.03;;;19.25;;
12966;SDS011;6548;49.996;8.238;2022-12-18T14:33:04;52.88;;;19.83;;
12966;SDS011;6548;49.996;8.238;2022-12-18T14:35:32;45.33;;;18.08;;
12966;SDS011;6548;49.996;8.238;2022-12-18T14:43:46;45.10;;;16.98;;
12966;SDS011;6548;49.996;8.238;2022-12-18T14:46:27;46.60;;;20.05;;
12966;SDS011;6548;49.996;8.238;2022-12-18T14:49:03;40.20;;;15.43;;
12966;SDS011;6548;49.996;8.238;2022-12-18T14:51:42;56.10;;;19.13;;
12966;SDS011;6548;49.996;8.238;2022-12-18T14:54:20;48.08;;;17.65;;
12966;SDS011;6548;49.996;8.238;2022-12-18T14:56:51;34.15;;;12.90;;
12966;SDS011;6548;49.996;8.238;2022-12-18T14:59:29;45.67;;;16.30;;
12966;SDS011;6548;49.996;8.238;2022-12-18T15:07:15;54.45;;;18.15;;
12966;SDS011;6548;49.996;8.238;2022-12-18T15:10:25;38.92;;;16.73;;
12966;SDS011;6548;49.996;8.238;2022-12-18T15:20:42;39.47;;;16.25;;
12966;SDS011;6548;49.996;8.238;2022-12-18T15:23:16;51.88;;;19.90;;
12966;SDS011;6548;49.996;8.238;2022-12-18T15:26:03;46.08;;;18.02;;
12966;SDS011;6548;49.996;8.238;2022-12-18T15:28:37;46.22;;;19.02;;
12966;SDS011;6548;49.996;8.238;2022-12-18T15:33:38;51.45;;;19.58;;
12966;SDS011;6548;49.996;8.238;2022-12-18T15:36:12;43.17;;;15.82;;
12966;SDS011;6548;49.996;8.238;2022-12-18T15:38:39;50.25;;;19.25;;
12966;SDS011;6548;49.996;8.238;2022-12-18T15:41:11;46.17;;;18.55;;
12966;SDS011;6548;49.996;8.238;2022-12-18T15:43:43;52.45;;;18.83;;
12966;SDS011;6548;49.996;8.238;2022-12-18T15:46:13;53.65;;;20.60;;
12966;SDS011;6548;49.996;8.238;2022-12-18T15:48:44;52.60;;;18.48;;
12966;SDS011;6548;49.996;8.238;2022-12-18T15:51:23;48.50;;;19.23;;
12966;SDS011;6548;49.996;8.238;2022-12-18T15:53:52;53.75;;;19.63;;
12966;SDS011;6548;49.996;8.238;2022-12-18T15:56:20;44.33;;;18.05;;
12966;SDS011;6548;49.996;8.238;2022-12-18T15:59:12;53.17;;;21.85;;
12966;SDS011;6548;49.996;8.238;2022-12-18T16:01:40;43.33;;;17.70;;
12966;SDS011;6548;49.996;8.238;2022-12-18T16:04:06;65.07;;;24.00;;
12966;SDS011;6548;49.996;8.238;2022-12-18T16:06:36;60.08;;;21.70;;
12966;SDS011;6548;49.996;8.238;2022-12-18T16:09:02;49.00;;;18.65;;
12966;SDS011;6548;49.996;8.238;2022-12-18T16:11:28;50.95;;;20.38;;
12966;SDS011;6548;49.996;8.238;2022-12-18T16:14:19;37.83;;;13.70;;
12966;SDS011;6548;49.996;8.238;2022-12-18T16:16:48;39.05;;;15.60;;
12966;SDS011;6548;49.996;8.238;2022-12-18T16:19:15;45.58;;;18.83;;
12966;SDS011;6548;49.996;8.238;2022-12-18T16:21:41;50.85;;;17.60;;
12966;SDS011;6548;49.996;8.238;2022-12-18T16:24:21;50.65;;;19.10;;
12966;SDS011;6548;49.996;8.238;2022-12-18T16:26:49;42.53;;;16.58;;
12966;SDS011;6548;49.996;8.238;2022-12-18T16:29:18;45.67;;;16.50;;
12966;SDS011;6548;49.996;8.238;2022-12-18T16:31:49;44.27;;;16.33;;
12966;SDS011;6548;49.996;8.238;2022-12-18T16:34:25;42.20;;;16.65;;
12966;SDS011;6548;49.996;8.238;2022-12-18T16:36:53;45.53;;;17.10;;
12966;SDS011;6548;49.996;8.238;2022-12-18T16:39:19;42.30;;;18.65;;
12966;SDS011;6548;49.996;8.238;2022-12-18T16:41:45;41.95;;;15.80;;
12966;SDS011;6548;49.996;8.238;2022-12-18T16:44:12;49.30;;;17.65;;
12966;SDS011;6548;49.996;8.238;2022-12-18T16:46:38;46.95;;;18.35;;
12966;SDS011;6548;49.996;8.238;2022-12-18T16:49:04;49.63;;;17.65;;
12966;SDS011;6548;49.996;8.238;2022-12-18T16:51:33;50.75;;;17.20;;
12966;SDS011;6548;49.996;8.238;2022-12-18T16:53:58;43.85;;;15.95;;
12966;SDS011;6548;49.996;8.238;2022-12-18T16:56:24;46.55;;;16.50;;
12966;SDS011;6548;49.996;8.238;2022-12-18T16:58:51;42.85;;;16.63;;
12966;SDS011;6548;49.996;8.238;2022-12-18T17:01:18;42.63;;;18.08;;
12966;SDS011;6548;49.996;8.238;2022-12-18T17:03:44;42.55;;;16.60;;
12966;SDS011;6548;49.996;8.238;2022-12-18T17:06:15;45.92;;;16.58;;
12966;SDS011;6548;49.996;8.238;2022-12-18T17:08:41;46.92;;;17.25;;
12966;SDS011;6548;49.996;8.238;2022-12-18T17:11:06;43.88;;;16.60;;
12966;SDS011;6548;49.996;8.238;2022-12-18T17:13:32;47.13;;;19.80;;
12966;SDS011;6548;49.996;8.238;2022-12-18T17:16:05;48.80;;;16.38;;
12966;SDS011;6548;49.996;8.238;2022-12-18T17:18:32;42.28;;;15.63;;
12966;SDS011;6548;49.996;8.238;2022-12-18T17:20:59;41.67;;;17.52;;
12966;SDS011;6548;49.996;8.238;2022-12-18T17:23:29;44.17;;;17.70;;
12966;SDS011;6548;49.996;8.238;2022-12-18T17:25:56;48.47;;;17.58;;
12966;SDS011;6548;49.996;8.238;2022-12-18T17:28:23;41.08;;;17.10;;
12966;SDS011;6548;49.996;8.238;2022-12-18T17:30:50;46.00;;;17.58;;
12966;SDS011;6548;49.996;8.238;2022-12-18T17:33:19;43.45;;;16.77;;
12966;SDS011;6548;49.996;8.238;2022-12-18T17:35:45;48.33;;;17.90;;
12966;SDS011;6548;49.996;8.238;2022-12-18T17:38:11;46.33;;;18.75;;
12966;SDS011;6548;49.996;8.238;2022-12-18T17:40:37;50.40;;;20.73;;
12966;SDS011;6548;49.996;8.238;2022-12-18T17:43:04;47.78;;;18.88;;
12966;SDS011;6548;49.996;8.238;2022-12-18T17:45:33;45.28;;;18.17;;
12966;SDS011;6548;49.996;8.238;2022-12-18T17:48:00;47.75;;;18.98;;
12966;SDS011;6548;49.996;8.238;2022-12-18T17:50:25;44.20;;;18.70;;
12966;SDS011;6548;49.996;8.238;2022-12-18T17:52:54;45.50;;;18.55;;
12966;SDS011;6548;49.996;8.238;2022-12-18T17:55:20;52.60;;;22.08;;
12966;SDS011;6548;49.996;8.238;2022-12-18T17:57:46;47.80;;;21.00;;
12966;SDS011;6548;49.996;8.238;2022-12-18T18:00:12;46.83;;;20.15;;
12966;SDS011;6548;49.996;8.238;2022-12-18T18:02:38;45.53;;;20.02;;
12966;SDS011;6548;49.996;8.238;2022-12-18T18:05:03;42.95;;;17.70;;
12966;SDS011;6548;49.996;8.238;2022-12-18T18:07:29;46.67;;;19.63;;
12966;SDS011;6548;49.996;8.238;2022-12-18T18:09:55;53.10;;;21.92;;
12966;SDS011;6548;49.996;8.238;2022-12-18T18:12:20;46.22;;;17.90;;
12966;SDS011;6548;49.996;8.238;2022-12-18T18:15:04;45.72;;;20.10;;
12966;SDS011;6548;49.996;8.238;2022-12-18T18:17:30;50.83;;;19.70;;
12966;SDS011;6548;49.996;8.238;2022-12-18T18:19:56;42.00;;;17.35;;
12966;SDS011;6548;49.996;8.238;2022-12-18T18:22:21;44.55;;;17.83;;
12966;SDS011;6548;49.996;8.238;2022-12-18T18:24:47;42.60;;;17.08;;
12966;SDS011;6548;49.996;8.238;2022-12-18T18:27:12;41.85;;;16.48;;
12966;SDS011;6548;49.996;8.238;2022-12-18T18:29:38;38.00;;;16.30;;
12966;SDS011;6548;49.996;8.238;2022-12-18T18:32:04;35.70;;;15.38;;
12966;SDS011;6548;49.996;8.238;2022-12-18T18:34:30;47.38;;;19.48;;
12966;SDS011;6548;49.996;8.238;2022-12-18T18:36:56;50.30;;;20.13;;
12966;SDS011;6548;49.996;8.238;2022-12-18T18:39:22;44.40;;;19.10;;
12966;SDS011;6548;49.996;8.238;2022-12-18T18:41:48;47.65;;;20.05;;
12966;SDS011;6548;49.996;8.238;2022-12-18T18:44:17;42.55;;;17.40;;
12966;SDS011;6548;49.996;8.238;2022-12-18T18:46:47;45.30;;;18.55;;
12966;SDS011;6548;49.996;8.238;2022-12-18T18:49:13;46.28;;;17.00;;
12966;SDS011;6548;49.996;8.238;2022-12-18T18:51:42;47.05;;;20.92;;
12966;SDS011;6548;49.996;8.238;2022-12-18T18:54:08;37.42;;;16.00;;
12966;SDS011;6548;49.996;8.238;2022-12-18T18:56:34;47.28;;;17.85;;
12966;SDS011;6548;49.996;8.238;2022-12-18T18:58:59;46.08;;;16.83;;
12966;SDS011;6548;49.996;8.238;2022-12-18T19:01:25;46.83;;;19.33;;
12966;SDS011;6548;49.996;8.238;2022-12-18T19:03:51;48.42;;;19.27;;
12966;SDS011;6548;49.996;8.238;2022-12-18T19:06:19;46.70;;;20.10;;
12966;SDS011;6548;49.996;8.238;2022-12-18T19:08:48;50.83;;;20.35;;
12966;SDS011;6548;49.996;8.238;2022-12-18T19:11:14;48.50;;;19.15;;
12966;SDS011;6548;49.996;8.238;2022-12-18T19:13:59;51.17;;;18.35;;
12966;SDS011;6548;49.996;8.238;2022-12-18T19:16:27;42.38;;;17.17;;
12966;SDS011;6548;49.996;8.238;2022-12-18T19:18:53;40.58;;;16.70;;
12966;SDS011;6548;49.996;8.238;2022-12-18T19:21:20;53.05;;;21.63;;
12966;SDS011;6548;49.996;8.238;2022-12-18T19:23:46;42.40;;;17.85;;
12966;SDS011;6548;49.996;8.238;2022-12-18T19:26:12;43.28;;;17.52;;
12966;SDS011;6548;49.996;8.238;2022-12-18T19:28:39;48.25;;;19.52;;
12966;SDS011;6548;49.996;8.238;2022-12-18T19:31:06;48.75;;;17.35;;
12966;SDS011;6548;49.996;8.238;2022-12-18T19:33:37;52.45;;;20.85;;
12966;SDS011;6548;49.996;8.238;2022-12-18T19:39:08;48.58;;;19.83;;
12966;SDS011;6548;49.996;8.238;2022-12-18T19:41:38;43.38;;;20.23;;
12966;SDS011;6548;49.996;8.238;2022-12-18T19:44:05;44.40;;;18.92;;
12966;SDS011;6548;49.996;8.238;2022-12-18T19:46:30;44.97;;;17.20;;
12966;SDS011;6548;49.996;8.238;2022-12-18T19:48:57;46.97;;;17.52;;
12966;SDS011;6548;49.996;8.238;2022-12-18T19:51:24;53.65;;;19.02;;
12966;SDS011;6548;49.996;8.238;2022-12-18T19:53:51;43.97;;;17.92;;
12966;SDS011;6548;49.996;8.238;2022-12-18T19:56:20;43.67;;;18.20;;
12966;SDS011;6548;49.996;8.238;2022-12-18T19:58:46;42.60;;;18.23;;
12966;SDS011;6548;49.996;8.238;2022-12-18T20:01:13;48.63;;;19.30;;
12966;SDS011;6548;49.996;8.238;2022-12-18T20:03:40;43.92;;;18.65;;
12966;SDS011;6548;49.996;8.238;2022-12-18T20:06:09;42.65;;;17.75;;
12966;SDS011;6548;49.996;8.238;2022-12-18T20:08:44;42.00;;;16.40;;
12966;SDS011;6548;49.996;8.238;2022-12-18T20:11:10;46.70;;;20.25;;
12966;SDS011;6548;49.996;8.238;2022-12-18T20:13:36;38.45;;;17.38;;
12966;SDS011;6548;49.996;8.238;2022-12-18T20:16:02;40.92;;;16.92;;
12966;SDS011;6548;49.996;8.238;2022-12-18T20:18:28;50.70;;;17.40;;
12966;SDS011;6548;49.996;8.238;2022-12-18T20:20:54;45.70;;;19.77;;
12966;SDS011;6548;49.996;8.238;2022-12-18T20:23:19;41.70;;;17.85;;
12966;SDS011;6548;49.996;8.238;2022-12-18T20:25:46;44.85;;;18.92;;
12966;SDS011;6548;49.996;8.238;2022-12-18T20:28:12;44.92;;;18.70;;
12966;SDS011;6548;49.996;8.238;2022-12-18T20:30:38;47.42;;;19.70;;
12966;SDS011;6548;49.996;8.238;2022-12-18T20:33:03;45.90;;;19.45;;
12966;SDS011;6548;49.996;8.238;2022-12-18T20:35:30;37.15;;;18.02;;
12966;SDS011;6548;49.996;8.238;2022-12-18T20:37:56;40.45;;;18.38;;
12966;SDS011;6548;49.996;8.238;2022-12-18T20:40:22;37.85;;;17.77;;
12966;SDS011;6548;49.996;8.238;2022-12-18T20:42:48;39.65;;;17.50;;
12966;SDS011;6548;49.996;8.238;2022-12-18T20:45:14;44.92;;;18.98;;
12966;SDS011;6548;49.996;8.238;2022-12-18T20:47:40;43.95;;;19.85;;
12966;SDS011;6548;49.996;8.238;2022-12-18T20:50:05;42.40;;;18.80;;
12966;SDS011;6548;49.996;8.238;2022-12-18T20:52:31;44.63;;;19.70;;